• Join FlightAware (Why Join?)
  • Login
  • US Flag GB Flag 
19:09 EDT


 

Airport Tracker/Info


-or-


 

Live Flight TrackerFlight Track Log ✈ SWA3313 ✈ 02-May-2013 ✈ KMHT - KBWI

Flight Track Log - Related Links

Times and Time Zones

All times are in EDT time to prevent confusion due to time zone crossing. See the SWA3313 flight status page for this flight to view local times or setup timezone preferences in your user account.

Time Position Orientation Groundspeed Altitude Reporting Facility
EDT Latitude Longitude Course Direction KTS MPH feet Rate Location/Type
17:58 42.9500 -71.4167 202° Southwest 142 163 1,300  Level KA90
18:00 42.9914 -71.3531 48° Northeast 211 243 4,700 2,640 Climbing Boston Center
18:01 43.0256 -71.2389 68° East 243 280 8,700 3,300 Climbing Boston Center
18:02 43.0536 -71.1386 69° East 267 307 12,000 3,480 Climbing Boston Center
18:03 43.0750 -70.9989 78° East 295 339 16,400 3,300 Climbing Boston Center
18:04 42.8590 -70.9358 202° Southwest  Level FlightAware Approximate
18:04 43.0050 -70.9183 140° Southeast 295 339 18,700  Level Boston Center
18:05 42.8928 -70.9353 186° South 300 345 21,100 2,580 Climbing Boston Center
18:06 42.7703 -70.9864 197° South 384 442 23,900 2,580 Climbing Boston Center
18:07 42.6547 -71.0681 207° Southwest 430 495 26,300 2,220 Climbing Boston Center
18:08 42.5833 -71.2106 236° Southwest 430 495 28,400 2,400 Climbing Boston Center
18:09 42.5036 -71.3700 236° Southwest 454 522 31,200 2,220 Climbing Boston Center
18:10 42.4422 -71.4836 234° Southwest 465 535 32,900 1,380 Climbing Boston Center
18:11 42.3581 -71.6336 233° Southwest 465 535 34,000 480 Climbing Boston Center
18:12 42.2817 -71.7750 234° Southwest 465 535 34,000  Level Boston Center
18:13 42.1908 -71.9386 233° Southwest 460 529 34,000  Level Boston Center
18:14 42.1122 -72.0875 235° Southwest 455 524 34,000  Level Boston Center
18:15 42.0356 -72.2222 233° Southwest 455 524 34,000  Level Boston Center
18:16 41.9772 -72.3339 235° Southwest 455 524 34,000  Level Boston Center
18:17 41.8897 -72.4958 234° Southwest 455 524 34,000  Level Boston Center
18:18 41.8147 -72.6294 233° Southwest 455 524 34,000  Level Boston Center
18:19 41.7414 -72.7656 234° Southwest 454 522 34,000  Level Boston Center
18:20 41.6658 -72.8986 233° Southwest 459 528 34,000  Level Boston Center
18:21 41.5881 -73.0367 233° Southwest 459 528 34,000  Level Boston Center
18:22 41.5228 -73.1583 234° Southwest 464 534 34,000 -1,320 Level Boston Center
18:24 41.3628 -73.4358 233° Southwest 470 541 30,000 -1,320 Descending New York Center
18:25 41.2825 -73.5736 232° Southwest 476 548 30,000  Level New York Center
18:26 41.2022 -73.7108 232° Southwest 476 548 30,000  Level New York Center
18:27 41.1214 -73.8478 232° Southwest 476 548 30,000  Level New York Center
18:28 41.0408 -73.9869 233° Southwest 476 548 30,000  Level New York Center
18:29 40.9600 -74.1233 232° Southwest 476 548 30,000 -60 Level New York Center
18:30 40.8661 -74.2694 230° Southwest 476 548 29,900 -960 Descending New York Center
18:31 40.7914 -74.4000 233° Southwest 476 548 28,100 -960 Descending New York Center
18:32 40.7186 -74.5222 232° Southwest 451 519 28,000 -540 Descending New York Center
18:33 40.6483 -74.6331 230° Southwest 428 493 27,100 -900 Descending New York Center
18:34 40.5778 -74.7522 232° Southwest 423 487 26,200 -1,020 Descending New York Center
18:35 40.4969 -74.8647 227° Southwest 423 487 25,100 -1,500 Descending New York Center
18:36 40.4178 -74.9772 227° Southwest 423 487 23,200 -1,980 Descending New York Center
18:37 40.3389 -75.0869 227° Southwest 423 487 21,200 -2,040 Descending New York Center
18:38 40.2642 -75.1911 227° Southwest 423 487 19,200 -1,620 Descending New York Center
18:39 40.1933 -75.3006 230° Southwest 407 468 18,000 -600 Descending New York Center
18:40 40.1331 -75.4000 232° Southwest 396 456 18,000  Level New York Center
18:41 40.0597 -75.5169 231° Southwest 389 448 18,000  Level New York Center
18:42 39.9994 -75.6133 231° Southwest 389 448 18,000  Level New York Center
18:43 39.9281 -75.7300 231° Southwest 389 448 18,100 -480 Climbing New York Center
18:44 39.8700 -75.8206 230° Southwest 378 435 17,100 -1,200 Descending New York Center
18:45 39.8025 -75.9292 231° Southwest 362 417 15,700 -1,440 Descending New York Center
18:49 39.6333 -76.2333 234° Southwest 309 356 11,200 -1,320 Descending Potomac TRACON
18:50 39.5833 -76.3333 237° Southwest 304 350 10,200 -720 Descending Potomac TRACON
18:51 39.5500 -76.4167 243° Southwest 273 314 9,800 -600 Descending Potomac TRACON
18:53 39.3727 -76.5361 201° Southwest  Level Estimated
18:54 39.4500 -76.6500 201° Southwest 246 283 7,800  Level Potomac TRACON
18:55 39.4167 -76.7167 237° Southwest 244 281 6,700 -1,080 Descending Potomac TRACON
18:57 39.2192 -76.6771 171° South  Level Estimated
18:58 39.2833 -76.9167 171° South 232 267 3,700  Level Potomac TRACON
18:59 39.2500 -76.9667 229° Southwest 212 244 3,100 -360 Descending Potomac TRACON
19:00 39.2000 -76.9500 166° South 181 208 3,000 -300 Descending Potomac TRACON
19:01 39.1833 -76.9000 113° Southeast 166 191 2,500 -300 Descending Potomac TRACON
19:02 39.1833 -76.8333 90° East 164 189 2,400 -480 Descending Potomac TRACON
19:03 39.1833 -76.7833 90° East 152 175 1,600 -780 Descending Potomac TRACON
19:04 39.1833 -76.7333 90° East 130 150 900 -720 Descending Potomac TRACON
19:06 39.1667 -76.6667 270° West  Level FlightAware Approximate
19:13 39.1754 -76.6683 270° West  Level Estimated
19:14 39.1754 -76.6683 270° West  Level Estimated
19:15 39.1754 -76.6683 270° West  Level Estimated